Terminal Aerodrome Forecast
Issued by NWS Tampa Bay Area, FL

Home | Current Version | Previous Version | Text Only | Print | Product List | Glossary On
Versions: 1 2 3 4 5 6 7 8 9 10 11 12 13 14 15 16 17 18 19
000
FTUS42 KTBW 021400 AAA
TAFSRQ
TAF AMD
KSRQ 021407Z 0214/0312 07004KT 5SM BR SCT010 BKN025
      TEMPO 0214/0215 OVC005
     FM021500 VRB05KT P6SM SCT025
     FM021900 29008KT P6SM SCT040
     FM030100 VRB05KT P6SM SCT040
     FM030800 09094KT 4SM BR BKN015=

USA.gov is the U.S. government's official web portal to all federal, state and local government web resources and services.